NCAR-RAP Real-Time Weather Data

Output produced by METARs form (12 May 2021  10:48 UTC)
found at http://weather.rap.ucar.edu/surface/
 
KDAN 120953Z AUTO 05008KT 10SM OVC060 13/05 A3021 RMK AO2 SLP222 T01280050
KDAN 120853Z AUTO 04009KT 10SM OVC070 13/06 A3020 RMK AO2 SLP218 T01330056 53014
KDAN 120753Z AUTO 03009KT 10SM SCT060 OVC080 14/05 A3018 RMK AO2 SLP211 T01390050
KDAN 120653Z AUTO 02007KT 10SM OVC090 14/04 A3017 RMK AO2 SLP209 T01440039
KDAN 120553Z AUTO 35006KT 10SM BKN100 14/04 A3015 RMK AO2 SLP203 T01390044 10167 20106 51005
KDAN 120453Z AUTO 02004KT 10SM BKN090 13/08 A3015 RMK AO2 SLP203 T01280083 402110106
KDAN 120353Z AUTO 00000KT 10SM FEW085 11/08 A3015 RMK AO2 SLP203 T01060083
KDAN 120253Z AUTO 00000KT 10SM BKN080 11/08 A3014 RMK AO2 SLP199 T01110083 53018
KDAN 120153Z AUTO 00000KT 10SM CLR 12/08 A3012 RMK AO2 SLP193 T01170083
KDAN 120053Z AUTO 07003KT 10SM CLR 13/09 A3010 RMK AO2 SLP185 T01280089
KDAN 112353Z AUTO 00000KT 10SM CLR 17/09 A3009 RMK AO2 SLP181 T01670089 10211 20167 58002
KDAN 112253Z AUTO 19003KT 10SM CLR 19/07 A3009 RMK AO2 SLP182 T01940072
KDAN 112153Z AUTO 22006KT 10SM CLR 19/06 A3009 RMK AO2 SLP182 T01940061
KDAN 112053Z AUTO 23005KT 10SM CLR 19/07 A3009 RMK AO2 SLP182 T01940067 58015
KDAN 111953Z AUTO 26006KT 10SM CLR 20/06 A3011 RMK AO2 SLP188 T02000056
KDAN 111853Z AUTO VRB03KT 10SM CLR 19/04 A3014 RMK AO2 SLP198 T01890044